Time;durP1;ratioP1;P1;durP2;ratioP2;P2;SDS_P1;SDS_P2;PMS_P1;PMS_P2;Temp;Humidity;BMP_temperature;BMP_pressure;BME280_temperature;BME280_humidity;BME280_pressure;Samples;Min_cycle;Max_cycle;Signal;HPM_P1;HPM_P2
2021/10/18 00:01:15;;;;;;;2.80;2.07;;;18.40;70.60;;;;;;10453482;28;20691;-71
2021/10/18 00:06:37;;;;;;;2.90;1.90;;;18.30;70.50;;;;;;10490436;28;20196;-72
2021/10/18 00:11:59;;;;;;;2.43;1.90;;;18.40;70.60;;;;;;10494118;28;20224;-71
2021/10/18 00:17:22;;;;;;;2.93;1.93;;;18.40;70.50;;;;;;10492774;28;20662;-71
2021/10/18 00:22:44;;;;;;;3.50;2.00;;;18.40;70.60;;;;;;10465543;28;20212;-71
2021/10/18 00:28:07;;;;;;;2.20;1.67;;;18.40;70.60;;;;;;10490028;28;20192;-72
2021/10/18 00:33:30;;;;;;;2.47;1.80;;;18.40;70.50;;;;;;10494162;28;20215;-72
2021/10/18 00:38:52;;;;;;;2.77;2.03;;;18.40;70.50;;;;;;10493363;28;20206;-72
2021/10/18 00:44:16;;;;;;;2.10;1.80;;;18.30;70.40;;;;;;10494863;28;20219;-71
2021/10/18 00:49:39;;;;;;;2.03;1.53;;;18.30;70.40;;;;;;10493268;28;20567;-69
2021/10/18 00:55:02;;;;;;;2.93;1.83;;;18.40;70.50;;;;;;10491956;28;20204;-72
2021/10/18 01:00:24;;;;;;;2.00;1.70;;;18.30;70.40;;;;;;10492479;28;20576;-72
2021/10/18 01:05:48;;;;;;;4.07;1.93;;;18.30;70.40;;;;;;10492597;28;20188;-72
2021/10/18 01:11:10;;;;;;;2.70;1.87;;;18.30;70.40;;;;;;10492104;28;20223;-73
2021/10/18 01:16:32;;;;;;;2.67;1.80;;;18.30;70.20;;;;;;10466550;28;20197;-72
2021/10/18 01:22:00;;;;;;;2.60;1.80;;;18.30;70.30;;;;;;10450194;28;20219;-72
2021/10/18 01:27:22;;;;;;;4.97;2.03;;;18.40;70.50;;;;;;10452303;28;20276;-72
2021/10/18 01:32:44;;;;;;;3.00;1.90;;;18.30;70.40;;;;;;10451849;28;20723;-72
2021/10/18 01:38:07;;;;;;;2.33;1.53;;;18.30;70.30;;;;;;10468328;28;20192;-72
2021/10/18 01:43:30;;;;;;;3.93;2.10;;;18.30;70.30;;;;;;10498154;28;20295;-72
2021/10/18 01:48:52;;;;;;;3.20;1.67;;;18.30;70.30;;;;;;10499663;28;20192;-72
2021/10/18 01:54:15;;;;;;;1.77;1.57;;;18.30;70.30;;;;;;10499901;28;20212;-71
2021/10/18 01:59:38;;;;;;;3.67;1.73;;;18.40;70.30;;;;;;10499749;28;20184;-70
2021/10/18 02:05:00;;;;;;;2.43;1.80;;;18.30;70.90;;;;;;10499580;28;20208;-72
2021/10/18 02:10:23;;;;;;;2.80;1.60;;;18.30;70.30;;;;;;10498668;28;20192;-72
2021/10/18 02:15:45;;;;;;;3.83;1.97;;;18.30;70.30;;;;;;10499707;28;20191;-72
2021/10/18 02:21:07;;;;;;;2.03;1.50;;;18.30;70.30;;;;;;10497603;28;20231;-72
2021/10/18 02:26:31;;;;;;;2.60;1.70;;;18.30;70.30;;;;;;10497151;28;20210;-72
2021/10/18 02:31:53;;;;;;;1.97;1.70;;;18.30;70.30;;;;;;10497165;28;20204;-72
2021/10/18 02:37:15;;;;;;;3.57;2.00;;;18.30;70.30;;;;;;10497454;28;20600;-72
2021/10/18 02:42:39;;;;;;;2.37;1.60;;;18.30;70.30;;;;;;10498025;28;20224;-72
2021/10/18 02:48:01;;;;;;;3.33;1.70;;;18.30;70.30;;;;;;10497394;28;20192;-72
2021/10/18 02:53:23;;;;;;;2.47;1.60;;;18.30;70.30;;;;;;10497210;28;20212;-72
2021/10/18 02:58:47;;;;;;;2.30;1.83;;;18.20;70.20;;;;;;10495682;28;20193;-72
2021/10/18 03:04:09;;;;;;;2.90;1.80;;;18.30;70.30;;;;;;10496866;28;20223;-72
2021/10/18 03:09:31;;;;;;;2.50;1.50;;;18.30;70.20;;;;;;10496277;28;20276;-71
2021/10/18 03:14:54;;;;;;;1.43;1.33;;;18.30;70.20;;;;;;10495495;28;20575;-72
2021/10/18 03:25:36;;;;;;;3.07;1.60;;;18.30;70.30;;;;;;10451725;28;20228;-68
2021/10/18 03:30:59;;;;;;;2.17;1.53;;;18.20;70.30;;;;;;10453756;28;20213;-69
2021/10/18 03:36:22;;;;;;;1.90;1.40;;;18.30;70.30;;;;;;10424770;28;20197;-69
2021/10/18 03:41:44;;;;;;;4.20;1.90;;;18.30;70.30;;;;;;10439909;28;20213;-69
2021/10/18 03:47:07;;;;;;;1.97;1.40;;;18.30;70.20;;;;;;10443336;28;20205;-69
2021/10/18 03:52:29;;;;;;;3.07;1.53;;;18.30;70.10;;;;;;10452556;28;20696;-69
2021/10/18 03:57:51;;;;;;;1.40;1.30;;;18.30;70.20;;;;;;10452556;28;20193;-68
2021/10/18 04:03:15;;;;;;;1.30;1.20;;;18.30;70.30;;;;;;10415047;28;20612;-68
2021/10/18 04:08:37;;;;;;;1.47;1.20;;;18.40;70.30;;;;;;10411516;28;20197;-69
2021/10/18 04:13:59;;;;;;;1.70;1.37;;;18.40;70.90;;;;;;10423536;28;20209;-69
2021/10/18 04:19:22;;;;;;;3.10;1.60;;;18.40;70.30;;;;;;10442437;28;20690;-68
2021/10/18 04:24:45;;;;;;;1.30;1.20;;;18.40;70.40;;;;;;10411528;28;20229;-69
2021/10/18 04:30:07;;;;;;;1.40;1.30;;;18.50;70.40;;;;;;10409811;28;20202;-68
2021/10/18 04:35:31;;;;;;;1.80;1.30;;;18.50;70.40;;;;;;10409786;28;20189;-68
2021/10/18 04:40:53;;;;;;;1.33;1.10;;;18.40;70.30;;;;;;10409422;28;20217;-68
2021/10/18 04:46:15;;;;;;;2.37;1.37;;;18.40;70.30;;;;;;10440678;28;20208;-68
2021/10/18 04:51:38;;;;;;;4.13;1.60;;;18.40;70.30;;;;;;10432769;28;20224;-69
2021/10/18 04:57:00;;;;;;;2.87;1.90;;;18.40;70.30;;;;;;10411589;28;20197;-69
2021/10/18 05:02:22;;;;;;;2.47;1.60;;;18.50;70.30;;;;;;10409378;28;20224;-69
2021/10/18 05:07:46;;;;;;;2.50;2.07;;;18.40;70.20;;;;;;10414466;28;20201;-68
2021/10/18 05:13:09;;;;;;;3.20;1.97;;;18.40;70.20;;;;;;10459510;28;20217;-68
2021/10/18 05:18:31;;;;;;;2.07;1.87;;;18.50;70.10;;;;;;10444731;28;20194;-69
2021/10/18 05:23:54;;;;;;;2.93;1.90;;;18.50;70.10;;;;;;10451689;28;20227;-68
2021/10/18 05:29:16;;;;;;;2.70;1.80;;;18.50;70.10;;;;;;10458834;28;20564;-67
2021/10/18 05:34:38;;;;;;;2.53;1.70;;;18.50;70.10;;;;;;10458178;28;20605;-69
2021/10/18 05:40:02;;;;;;;2.57;2.03;;;18.50;70.10;;;;;;10458128;28;20588;-68
2021/10/18 05:45:24;;;;;;;2.00;1.80;;;18.50;70.10;;;;;;10433785;28;20221;-68
2021/10/18 05:50:46;;;;;;;1.90;1.57;;;18.50;70.10;;;;;;10458371;28;20205;-68
2021/10/18 05:56:09;;;;;;;2.30;2.00;;;18.50;70.10;;;;;;10428069;28;20205;-68
2021/10/18 06:01:31;;;;;;;2.63;2.10;;;18.50;70.00;;;;;;10455370;28;20227;-68
2021/10/18 06:06:53;;;;;;;2.63;1.90;;;18.50;70.00;;;;;;10453272;28;20674;-68
2021/10/18 06:12:17;;;;;;;2.10;1.90;;;18.50;70.00;;;;;;10415558;28;20218;-67
2021/10/18 06:17:41;;;;;;;2.70;1.73;;;18.50;70.00;;;;;;10443757;28;20197;-69
2021/10/18 06:23:03;;;;;;;2.53;1.83;;;18.50;70.00;;;;;;10450208;28;20347;-70
2021/10/18 06:28:27;;;;;;;2.77;1.80;;;18.50;70.00;;;;;;10448287;28;20223;-69
2021/10/18 06:33:49;;;;;;;2.70;1.70;;;18.50;70.00;;;;;;10449972;28;20214;-68
2021/10/18 06:39:11;;;;;;;2.80;1.80;;;18.40;70.20;;;;;;10452975;28;20212;-69
2021/10/18 06:44:34;;;;;;;2.00;1.80;;;18.40;70.10;;;;;;10448748;28;20726;-68
2021/10/18 06:49:57;;;;;;;2.47;1.87;;;18.40;69.80;;;;;;10447594;28;20200;-71
2021/10/18 06:55:21;;;;;;;2.57;1.53;;;18.40;69.50;;;;;;10445013;28;20208;-70
2021/10/18 07:00:44;;;;;;;3.30;2.00;;;18.40;69.40;;;;;;10443083;28;20272;-69
2021/10/18 07:06:07;;;;;;;2.87;1.60;;;18.40;69.40;;;;;;10447592;28;20221;-67
2021/10/18 07:11:29;;;;;;;3.07;1.77;;;18.50;69.40;;;;;;10450292;28;20217;-68
2021/10/18 07:16:52;;;;;;;3.00;1.90;;;18.50;69.20;;;;;;10447847;28;20201;-67
2021/10/18 07:22:14;;;;;;;2.93;2.10;;;18.50;68.40;;;;;;10446253;28;20221;-69
2021/10/18 07:27:37;;;;;;;3.60;2.10;;;18.40;68.30;;;;;;10444234;28;20209;-67
2021/10/18 07:33:01;;;;;;;2.80;1.93;;;18.40;67.80;;;;;;10424137;28;20213;-68
2021/10/18 07:38:24;;;;;;;2.77;1.80;;;18.40;67.50;;;;;;10441049;28;20209;-68
2021/10/18 07:43:46;;;;;;;3.77;1.93;;;18.40;67.30;;;;;;10429694;28;20228;-67
2021/10/18 07:49:10;;;;;;;7.17;2.30;;;18.40;67.00;;;;;;10432031;28;20198;-70
2021/10/18 07:54:32;;;;;;;3.53;2.03;;;18.40;66.30;;;;;;10427042;28;20209;-68
2021/10/18 07:59:54;;;;;;;3.73;2.10;;;18.40;66.30;;;;;;10420950;28;20205;-68
2021/10/18 08:05:17;;;;;;;3.67;2.20;;;18.40;66.00;;;;;;10416617;28;20229;-69
2021/10/18 08:10:39;;;;;;;4.10;2.03;;;18.40;65.80;;;;;;10423782;28;20201;-71
2021/10/18 08:16:02;;;;;;;3.03;2.00;;;18.40;65.40;;;;;;10429257;28;20208;-71
2021/10/18 08:21:25;;;;;;;2.90;1.63;;;18.40;65.10;;;;;;10425545;28;20228;-69
2021/10/18 08:26:47;;;;;;;2.60;2.10;;;18.40;65.60;;;;;;10405764;28;20209;-70
2021/10/18 08:32:09;;;;;;;3.13;1.73;;;18.40;65.80;;;;;;10411396;28;20708;-68
2021/10/18 08:43:20;;;;;;;3.17;2.00;;;18.50;66.40;;;;;;10440358;28;20283;-67
2021/10/18 08:48:49;;;;;;;2.23;1.50;;;18.40;66.20;;;;;;10439036;28;20196;-69
2021/10/18 08:54:12;;;;;;;3.73;1.87;;;18.50;66.40;;;;;;10420835;28;20229;-68
2021/10/18 08:59:34;;;;;;;2.60;1.70;;;18.40;66.50;;;;;;10427214;28;20212;-68
2021/10/18 09:04:56;;;;;;;2.07;1.50;;;18.50;66.80;;;;;;10403505;28;20229;-68
2021/10/18 09:10:20;;;;;;;3.00;1.70;;;18.50;67.50;;;;;;10419985;28;20220;-68
2021/10/18 09:15:42;;;;;;;2.27;1.47;;;18.50;67.10;;;;;;10413158;28;20193;-68
2021/10/18 09:21:04;;;;;;;2.53;1.37;;;18.60;67.30;;;;;;10430123;28;20236;-67
2021/10/18 09:26:28;;;;;;;3.53;1.40;;;18.60;67.50;;;;;;10514195;22;20235;-66
2021/10/18 09:31:59;;;;;;;3.07;1.50;;;18.60;67.60;;;;;;10533132;28;20222;-66
2021/10/18 09:37:22;;;;;;;2.97;1.40;;;18.60;67.60;;;;;;10527447;28;20576;-67
2021/10/18 09:43:01;;;;;;;1.90;1.40;;;18.60;67.70;;;;;;10526415;28;20584;-67
2021/10/18 10:57:03;;;;;;;1.90;1.47;;;18.60;69.10;;;;;;10520272;28;20188;-65
2021/10/18 11:02:30;;;;;;;1.73;1.20;;;18.60;68.90;;;;;;10534033;28;20212;-67
2021/10/18 11:07:55;;;;;;;4.00;1.67;;;18.60;68.80;;;;;;10540472;28;20260;-66
2021/10/18 11:13:17;;;;;;;2.97;1.57;;;18.60;68.80;;;;;;10536754;28;20221;-67
2021/10/18 11:18:40;;;;;;;8.47;1.87;;;18.60;68.70;;;;;;10534644;28;20215;-68
2021/10/18 11:24:06;;;;;;;5.60;1.90;;;18.60;68.70;;;;;;10531088;28;20219;-67
2021/10/18 11:29:31;;;;;;;5.90;2.83;;;18.60;68.70;;;;;;10530932;28;20243;-67
2021/10/18 11:35:14;;;;;;;6.17;3.70;;;18.60;68.90;;;;;;10533315;28;20192;-67
2021/10/18 11:40:41;;;;;;;7.10;3.40;;;18.60;69.10;;;;;;10533197;28;20219;-67
2021/10/18 11:46:04;;;;;;;8.00;3.17;;;18.60;69.40;;;;;;10531595;28;20441;-67
2021/10/18 11:51:26;;;;;;;5.73;2.80;;;18.60;69.40;;;;;;10531141;28;20695;-66
2021/10/18 11:56:55;;;;;;;6.53;2.90;;;18.60;69.50;;;;;;10525525;28;20188;-66
2021/10/18 12:02:21;;;;;;;4.37;2.77;;;18.60;69.30;;;;;;10531608;28;20207;-67
2021/10/18 12:07:47;;;;;;;8.47;3.07;;;18.70;69.40;;;;;;10527239;28;20202;-66
2021/10/18 12:13:23;;;;;;;5.53;3.23;;;18.70;69.40;;;;;;10529431;28;20239;-68
2021/10/18 12:18:47;;;;;;;5.50;2.60;;;18.70;69.30;;;;;;10532155;28;20207;-66
2021/10/18 12:24:14;;;;;;;4.77;2.57;;;18.70;69.50;;;;;;10533498;28;20688;-66
2021/10/18 12:29:39;;;;;;;7.97;3.40;;;18.70;69.60;;;;;;10522804;28;20451;-66
2021/10/18 12:35:04;;;;;;;6.70;2.80;;;18.90;68.80;;;;;;10528338;28;20565;-66
2021/10/18 12:40:26;;;;;;;5.87;2.57;;;18.80;69.10;;;;;;10522730;28;20345;-67
2021/10/18 12:45:50;;;;;;;7.77;2.63;;;18.70;69.30;;;;;;10535519;28;20327;-68
2021/10/18 12:51:13;;;;;;;3.40;2.47;;;18.70;69.40;;;;;;10528104;28;20286;-68
2021/10/18 12:56:35;;;;;;;4.53;2.47;;;18.70;69.50;;;;;;10523739;28;20199;-67
2021/10/18 13:02:23;;;;;;;4.03;2.33;;;18.70;69.60;;;;;;10533720;28;20345;-67
2021/10/18 13:07:50;;;;;;;4.23;2.33;;;18.70;69.40;;;;;;10532225;28;20195;-66
2021/10/18 13:13:14;;;;;;;6.00;2.63;;;18.60;69.60;;;;;;10526630;28;20692;-66
2021/10/18 13:18:38;;;;;;;5.07;2.70;;;18.70;69.80;;;;;;10529490;28;20699;-66
2021/10/18 13:24:00;;;;;;;4.80;2.40;;;18.70;69.70;;;;;;10528395;28;20681;-67
2021/10/18 13:29:23;;;;;;;3.67;2.20;;;18.60;70.00;;;;;;10521843;28;20709;-65
2021/10/18 13:34:47;;;;;;;5.33;2.50;;;18.70;70.00;;;;;;10534202;28;20203;-65
2021/10/18 13:40:11;;;;;;;4.57;2.43;;;18.70;70.00;;;;;;10534018;28;20708;-64
2021/10/18 13:45:34;;;;;;;4.87;2.10;;;18.70;70.20;;;;;;10535735;28;20247;-67
2021/10/18 13:50:57;;;;;;;5.00;2.83;;;18.70;70.10;;;;;;10531688;28;20224;-66
2021/10/18 13:56:21;;;;;;;9.30;2.60;;;18.70;70.30;;;;;;10536114;28;20211;-66
2021/10/18 14:01:43;;;;;;;5.83;2.30;;;18.70;70.90;;;;;;10536960;28;20208;-66
2021/10/18 14:07:06;;;;;;;4.70;2.30;;;18.70;70.50;;;;;;10536756;28;20594;-66
2021/10/18 14:12:28;;;;;;;4.77;2.47;;;18.70;70.40;;;;;;10529246;28;20228;-66
2021/10/18 14:17:51;;;;;;;5.77;2.27;;;18.70;70.40;;;;;;10533532;28;20724;-66
2021/10/18 14:23:14;;;;;;;6.53;2.30;;;18.70;70.50;;;;;;10533689;28;20211;-66
2021/10/18 14:28:36;;;;;;;3.17;1.67;;;18.70;70.50;;;;;;10532172;28;20220;-66
2021/10/18 14:33:59;;;;;;;3.53;1.93;;;18.70;70.40;;;;;;10536453;28;20188;-66
2021/10/18 14:39:22;;;;;;;3.10;2.03;;;18.70;70.40;;;;;;10533905;28;20220;-67
2021/10/18 14:44:45;;;;;;;3.13;2.13;;;18.70;70.70;;;;;;10536527;28;20226;-67
2021/10/18 14:50:08;;;;;;;4.40;2.20;;;18.70;71.00;;;;;;10535781;28;20298;-67
2021/10/18 14:55:39;;;;;;;4.27;2.10;;;18.70;71.00;;;;;;10536680;28;20195;-67
2021/10/18 15:01:01;;;;;;;3.20;2.00;;;18.70;70.90;;;;;;10536684;28;20220;-66
2021/10/18 15:06:24;;;;;;;4.47;1.90;;;18.70;70.80;;;;;;10512045;28;20219;-67
2021/10/18 15:11:47;;;;;;;2.83;1.77;;;18.70;70.90;;;;;;10532219;28;20216;-66
2021/10/18 15:17:10;;;;;;;9.60;1.90;;;18.70;70.70;;;;;;10535736;28;20581;-66
2021/10/18 15:22:32;;;;;;;8.20;2.47;;;18.70;71.00;;;;;;10523909;28;20214;-66
2021/10/18 15:27:55;;;;;;;3.60;1.50;;;18.70;71.30;;;;;;10503622;22;20808;-63
2021/10/18 15:33:17;;;;;;;3.40;1.53;;;18.70;71.70;;;;;;10465851;28;20209;-65
2021/10/18 15:38:40;;;;;;;3.88;1.90;;;18.70;71.90;;;;;;10468060;28;20922;-64
2021/10/18 15:44:05;;;;;;;4.43;2.13;;;19.20;70.20;;;;;;10471052;28;20434;-62
2021/10/18 15:49:27;;;;;;;3.80;2.00;;;19.50;68.90;;;;;;10475312;28;20566;-62
2021/10/18 15:54:49;;;;;;;2.50;1.77;;;19.10;69.90;;;;;;10487382;28;20268;-62
2021/10/18 16:00:13;;;;;;;2.67;1.50;;;18.90;70.30;;;;;;10468319;28;20224;-62
2021/10/18 16:05:35;;;;;;;4.20;1.83;;;18.80;70.60;;;;;;10487463;28;20303;-63
2021/10/18 16:10:58;;;;;;;3.77;1.53;;;18.80;70.70;;;;;;10467188;28;20225;-62
2021/10/18 16:16:21;;;;;;;1.93;1.37;;;18.80;70.80;;;;;;10462468;28;20204;-61
2021/10/18 16:21:43;;;;;;;3.47;1.87;;;18.80;70.80;;;;;;10484393;28;20212;-61
2021/10/18 16:27:05;;;;;;;2.60;1.60;;;18.80;70.90;;;;;;10463990;28;20228;-63
2021/10/18 16:32:29;;;;;;;2.10;1.60;;;18.70;70.80;;;;;;10479803;28;20220;-62
2021/10/18 16:37:51;;;;;;;2.83;1.80;;;18.80;70.90;;;;;;10489961;28;20193;-62
2021/10/18 16:43:14;;;;;;;2.50;1.50;;;18.70;70.90;;;;;;10455015;28;20197;-63
2021/10/18 16:48:37;;;;;;;2.60;1.60;;;18.70;71.00;;;;;;10462733;28;20213;-62
2021/10/18 16:53:59;;;;;;;4.30;1.70;;;18.70;71.00;;;;;;10457140;28;20201;-62
2021/10/18 16:59:22;;;;;;;2.57;1.80;;;18.80;71.10;;;;;;10472438;28;20221;-64
2021/10/18 17:04:45;;;;;;;2.20;1.73;;;18.80;71.00;;;;;;10484438;28;20217;-64
2021/10/18 17:10:08;;;;;;;1.73;1.40;;;18.80;71.00;;;;;;10479032;28;20225;-63
2021/10/18 17:15:31;;;;;;;3.83;1.70;;;18.80;71.00;;;;;;10484225;28;20681;-61
2021/10/18 17:20:55;;;;;;;1.73;1.30;;;18.80;71.10;;;;;;10472473;28;20225;-62
2021/10/18 17:26:17;;;;;;;5.35;1.90;;;18.70;71.00;;;;;;10490174;28;20509;-61
2021/10/18 17:31:40;;;;;;;4.13;1.70;;;19.40;69.00;;;;;;10495574;28;20216;-62
2021/10/18 17:37:04;;;;;;;2.77;1.80;;;19.10;70.40;;;;;;10496529;28;20677;-62
2021/10/18 17:42:26;;;;;;;2.57;1.33;;;18.90;71.10;;;;;;10491763;28;20216;-62
2021/10/18 17:47:48;;;;;;;5.07;1.53;;;18.90;71.50;;;;;;10490100;28;20598;-61
2021/10/18 17:53:12;;;;;;;1.70;1.20;;;18.80;72.00;;;;;;10488837;28;20208;-62
2021/10/18 17:58:34;;;;;;;2.70;1.40;;;18.80;71.10;;;;;;10480663;28;20216;-61
2021/10/18 18:03:59;;;;;;;4.57;1.50;;;18.80;71.90;;;;;;10490830;28;20270;-64
2021/10/18 18:09:24;;;;;;;4.23;1.70;;;18.80;72.20;;;;;;10483254;28;20690;-62
2021/10/18 18:14:46;;;;;;;3.43;1.83;;;18.80;72.30;;;;;;10485263;28;20550;-62
2021/10/18 18:20:09;;;;;;;2.27;1.50;;;18.80;72.20;;;;;;10489625;28;20262;-62
2021/10/18 18:25:33;;;;;;;5.30;1.90;;;18.80;72.20;;;;;;10481420;28;20453;-63
2021/10/18 18:30:58;;;;;;;1.90;1.50;;;19.20;70.80;;;;;;10484566;28;20227;-63
2021/10/18 18:36:21;;;;;;;5.07;1.43;;;19.00;71.60;;;;;;10486475;28;20204;-63
2021/10/18 18:41:44;;;;;;;1.93;1.23;;;18.90;72.10;;;;;;10477502;28;20220;-62
2021/10/18 18:47:06;;;;;;;3.03;1.70;;;18.80;71.80;;;;;;10472514;28;20227;-61
2021/10/18 18:52:29;;;;;;;4.00;1.17;;;18.80;72.00;;;;;;10489160;28;20235;-62
2021/10/18 18:57:52;;;;;;;2.43;1.33;;;18.80;72.30;;;;;;10467578;28;20192;-62
2021/10/18 19:03:15;;;;;;;4.07;1.30;;;18.90;72.10;;;;;;10486363;28;20204;-62
2021/10/18 19:08:37;;;;;;;2.37;1.20;;;18.80;72.00;;;;;;10483275;28;20212;-62
2021/10/18 19:14:02;;;;;;;2.10;1.50;;;18.80;72.10;;;;;;10463204;28;20189;-61
2021/10/18 19:19:27;;;;;;;1.97;1.20;;;18.80;71.60;;;;;;10491004;28;20362;-62
2021/10/18 19:24:49;;;;;;;2.50;1.37;;;18.80;71.50;;;;;;10491715;28;20303;-65
2021/10/18 19:30:15;;;;;;;2.73;1.60;;;18.80;71.40;;;;;;10480659;28;20221;-63
2021/10/18 19:35:37;;;;;;;3.50;1.70;;;18.90;71.40;;;;;;10493660;28;20447;-62
2021/10/18 19:40:59;;;;;;;1.70;1.40;;;18.80;71.30;;;;;;10480840;28;20224;-62
2021/10/18 19:46:23;;;;;;;2.00;1.27;;;18.80;71.30;;;;;;10487355;28;20221;-63
2021/10/18 19:51:45;;;;;;;1.83;1.27;;;18.90;71.30;;;;;;10480547;28;20574;-63
2021/10/18 19:57:07;;;;;;;2.37;1.60;;;18.90;71.20;;;;;;10484373;28;20189;-63
2021/10/18 20:02:31;;;;;;;2.70;1.50;;;18.90;71.30;;;;;;10490395;28;20720;-63
2021/10/18 20:07:53;;;;;;;1.90;1.40;;;18.90;71.30;;;;;;10469614;28;20216;-63
2021/10/18 20:13:15;;;;;;;2.13;1.50;;;18.90;71.30;;;;;;10466989;28;20701;-63
2021/10/18 20:18:39;;;;;;;1.80;1.50;;;18.90;71.40;;;;;;10481619;28;20274;-63
2021/10/18 20:24:01;;;;;;;1.53;1.37;;;18.90;71.30;;;;;;10475785;28;20197;-62
2021/10/18 20:29:24;;;;;;;2.07;1.23;;;18.80;71.30;;;;;;10489295;28;20224;-62
2021/10/18 20:34:47;;;;;;;1.33;1.23;;;18.90;71.40;;;;;;10477810;28;20200;-62
2021/10/18 20:40:10;;;;;;;1.77;1.57;;;18.80;71.30;;;;;;10469105;28;20216;-63
2021/10/18 20:45:34;;;;;;;1.67;1.30;;;18.80;71.30;;;;;;10462019;28;20221;-63
2021/10/18 20:50:57;;;;;;;1.93;1.63;;;18.80;71.40;;;;;;10468417;28;20291;-64
2021/10/18 20:56:20;;;;;;;1.77;1.60;;;18.80;71.40;;;;;;10463016;28;20693;-63
2021/10/18 21:01:43;;;;;;;1.97;1.63;;;18.80;71.50;;;;;;10463153;28;20676;-64
2021/10/18 21:07:07;;;;;;;2.50;1.63;;;18.80;71.50;;;;;;10470628;28;20231;-65
2021/10/18 21:12:29;;;;;;;2.33;1.50;;;18.80;71.50;;;;;;10466876;28;20220;-63
2021/10/18 21:17:51;;;;;;;1.97;1.50;;;18.80;71.50;;;;;;10464091;28;20204;-63
2021/10/18 21:23:14;;;;;;;1.77;1.40;;;18.70;71.50;;;;;;10465832;28;20397;-63
2021/10/18 21:28:37;;;;;;;3.23;1.43;;;18.70;71.50;;;;;;10462737;28;20590;-63
2021/10/18 21:33:59;;;;;;;1.57;1.47;;;18.70;71.50;;;;;;10463981;28;20201;-63
2021/10/18 21:39:22;;;;;;;2.30;1.70;;;18.70;71.60;;;;;;10470718;28;20216;-63
2021/10/18 21:44:44;;;;;;;1.87;1.67;;;18.70;71.60;;;;;;10496233;22;20228;-61
2021/10/18 21:50:07;;;;;;;2.27;1.77;;;18.60;71.50;;;;;;10479167;28;20664;-63
2021/10/18 21:55:30;;;;;;;1.53;1.43;;;18.60;71.50;;;;;;10482360;28;20213;-64
2021/10/18 22:00:53;;;;;;;1.90;1.60;;;18.60;71.40;;;;;;10485533;28;20726;-62
2021/10/18 22:06:15;;;;;;;1.93;1.40;;;18.60;71.40;;;;;;10485639;28;20229;-64
2021/10/18 22:11:38;;;;;;;2.20;1.67;;;18.60;71.40;;;;;;10485061;28;20641;-62
2021/10/18 22:17:01;;;;;;;2.00;1.80;;;18.60;72.00;;;;;;10486212;28;20205;-60
2021/10/18 22:22:23;;;;;;;2.00;1.63;;;18.60;71.40;;;;;;10486966;28;20299;-62
2021/10/18 22:27:49;;;;;;;1.60;1.50;;;18.60;71.50;;;;;;10483585;28;20604;-63
2021/10/18 22:33:11;;;;;;;1.77;1.47;;;18.60;71.50;;;;;;10484343;28;20220;-64
2021/10/18 22:38:33;;;;;;;2.23;1.83;;;18.60;71.40;;;;;;10484040;28;20188;-62
2021/10/18 22:43:56;;;;;;;2.27;1.70;;;18.60;71.40;;;;;;10485902;28;20228;-62
2021/10/18 22:49:18;;;;;;;2.03;1.53;;;18.60;71.40;;;;;;10483039;28;20567;-62
2021/10/18 22:54:40;;;;;;;2.23;1.80;;;18.60;71.40;;;;;;10485835;28;20217;-62
2021/10/18 23:00:05;;;;;;;2.70;1.83;;;18.60;71.40;;;;;;10485381;28;20196;-63
2021/10/18 23:05:28;;;;;;;2.03;1.70;;;18.60;71.50;;;;;;10484221;28;20718;-61
2021/10/18 23:10:50;;;;;;;1.53;1.40;;;18.60;71.50;;;;;;10485242;28;20200;-61
2021/10/18 23:16:13;;;;;;;2.10;1.90;;;18.60;71.40;;;;;;10483903;28;20196;-62
2021/10/18 23:21:35;;;;;;;2.70;2.13;;;18.60;71.40;;;;;;10486351;28;20220;-63
2021/10/18 23:26:57;;;;;;;2.03;1.83;;;18.60;71.40;;;;;;10481743;28;20216;-62
2021/10/18 23:32:21;;;;;;;1.90;1.80;;;18.60;71.40;;;;;;10483920;28;20216;-61
2021/10/18 23:37:43;;;;;;;2.63;1.87;;;18.60;71.50;;;;;;10482572;28;20185;-61
2021/10/18 23:43:06;;;;;;;1.83;1.57;;;18.60;71.50;;;;;;10483769;28;20232;-60
2021/10/18 23:48:29;;;;;;;2.20;1.77;;;18.60;71.50;;;;;;10484859;28;20234;-62
2021/10/18 23:53:52;;;;;;;2.47;2.13;;;18.50;71.60;;;;;;10494460;28;20212;-60
2021/10/18 23:59:14;;;;;;;2.93;2.40;;;18.50;71.60;;;;;;10494686;28;20192;-63
